Time;durP1;ratioP1;P1;durP2;ratioP2;P2;SDS_P1;SDS_P2;PMS_P1;PMS_P2;Temp;Humidity;BMP_temperature;BMP_pressure;BME280_temperature;BME280_humidity;BME280_pressure;Samples;Min_cycle;Max_cycle;Signal;HPM_P1;HPM_P2
2021/12/27 00:02:26;;;;;;;37.47;19.80;;;-5.20;99.90;;;;;;615805;233;26878;-78
2021/12/27 00:04:53;;;;;;;36.60;19.87;;;-5.30;99.90;;;;;;615826;233;26540;-83
2021/12/27 00:07:20;;;;;;;33.43;19.23;;;-5.20;99.90;;;;;;615830;234;26804;-77
2021/12/27 00:09:49;;;;;;;38.73;21.33;;;-5.10;99.90;;;;;;615748;234;26571;-78
2021/12/27 00:12:15;;;;;;;32.80;19.23;;;-5.10;99.90;;;;;;615703;234;26819;-77
2021/12/27 00:14:42;;;;;;;34.87;19.10;;;-5.10;99.90;;;;;;615323;233;26679;-78
2021/12/27 00:17:09;;;;;;;35.73;19.57;;;-5.00;99.90;;;;;;615257;234;26615;-78
2021/12/27 00:19:36;;;;;;;39.17;20.33;;;-4.90;99.90;;;;;;616617;231;26664;-78
2021/12/27 00:22:04;;;;;;;35.03;19.50;;;-5.00;99.90;;;;;;616491;233;26618;-78
2021/12/27 00:24:31;;;;;;;39.80;20.97;;;-5.00;99.90;;;;;;616221;233;26615;-77
2021/12/27 00:26:59;;;;;;;40.00;21.50;;;-4.70;99.90;;;;;;616118;233;26588;-78
2021/12/27 00:29:26;;;;;;;36.17;20.77;;;-4.80;99.90;;;;;;615854;233;26603;-78
2021/12/27 00:31:53;;;;;;;38.57;21.50;;;-5.00;99.90;;;;;;615803;228;26591;-78
2021/12/27 00:34:21;;;;;;;40.33;21.30;;;-5.00;99.90;;;;;;615906;233;26571;-77
2021/12/27 00:36:49;;;;;;;32.63;18.87;;;-5.00;99.90;;;;;;615710;233;26655;-77
2021/12/27 00:39:16;;;;;;;37.20;20.23;;;-5.00;99.90;;;;;;615465;233;27342;-77
2021/12/27 00:41:44;;;;;;;40.37;19.93;;;-4.80;99.90;;;;;;615554;233;26624;-78
2021/12/27 00:44:12;;;;;;;37.83;22.03;;;-4.80;99.90;;;;;;615587;233;26607;-78
2021/12/27 00:46:39;;;;;;;40.63;21.00;;;-4.80;99.90;;;;;;615514;233;26613;-78
2021/12/27 00:49:06;;;;;;;36.03;20.43;;;-4.70;99.90;;;;;;615463;233;26656;-78
2021/12/27 00:51:34;;;;;;;38.13;20.73;;;-4.70;99.90;;;;;;615521;233;26616;-78
2021/12/27 00:54:02;;;;;;;38.37;22.10;;;-4.70;99.90;;;;;;615356;233;26598;-78
2021/12/27 00:56:29;;;;;;;35.80;21.30;;;-4.80;99.90;;;;;;615111;233;26576;-81
2021/12/27 00:58:56;;;;;;;39.90;22.03;;;-4.60;99.90;;;;;;615157;234;26795;-81
2021/12/27 01:01:24;;;;;;;43.73;21.97;;;-4.60;99.90;;;;;;615166;233;26577;-80
2021/12/27 01:03:52;;;;;;;39.00;22.40;;;-4.60;99.90;;;;;;615255;233;26627;-80
2021/12/27 01:06:20;;;;;;;40.27;22.77;;;-4.60;99.90;;;;;;615289;233;26611;-81
2021/12/27 01:08:48;;;;;;;37.90;21.93;;;-4.60;99.90;;;;;;615342;230;26625;-81
2021/12/27 01:14:12;;;;;;;45.03;22.23;;;-4.70;99.90;;;;;;615244;234;26562;-80
2021/12/27 01:16:32;;;;;;;44.13;23.23;;;-4.80;99.90;;;;;;614678;234;26785;-81
2021/12/27 01:18:59;;;;;;;41.57;23.17;;;-4.60;99.90;;;;;;615206;233;27238;-81
2021/12/27 01:21:26;;;;;;;42.17;23.03;;;-4.70;99.90;;;;;;615376;234;26557;-81
2021/12/27 01:23:53;;;;;;;43.50;24.00;;;-4.80;99.90;;;;;;615309;233;26924;-81
2021/12/27 01:26:21;;;;;;;40.30;23.57;;;-4.70;99.90;;;;;;615265;233;27046;-80
2021/12/27 01:28:49;;;;;;;39.03;22.73;;;-4.60;99.90;;;;;;615216;233;26876;-82
2021/12/27 01:31:16;;;;;;;42.83;23.27;;;-4.50;99.90;;;;;;616655;231;26607;-81
2021/12/27 01:33:46;;;;;;;41.37;22.27;;;-4.50;99.90;;;;;;616352;233;26907;-80
2021/12/27 01:36:11;;;;;;;39.27;22.70;;;-4.50;99.90;;;;;;616053;233;26948;-80
2021/12/27 01:38:40;;;;;;;39.00;24.77;;;-4.50;99.90;;;;;;616087;230;26804;-81
2021/12/27 01:41:05;;;;;;;40.63;23.77;;;-4.50;99.90;;;;;;615825;233;27052;-80
2021/12/27 01:43:33;;;;;;;42.67;24.00;;;-4.40;99.90;;;;;;615847;233;26566;-80
2021/12/27 01:46:00;;;;;;;42.27;24.50;;;-4.40;99.80;;;;;;615930;233;26810;-81
2021/12/27 01:48:29;;;;;;;40.10;24.50;;;-4.30;99.90;;;;;;615525;233;26615;-80
2021/12/27 01:50:54;;;;;;;44.53;23.90;;;-4.10;99.90;;;;;;615210;228;26927;-80
2021/12/27 01:53:21;;;;;;;43.93;24.50;;;-4.10;99.60;;;;;;615604;233;26637;-81
2021/12/27 01:55:49;;;;;;;43.67;23.87;;;-4.30;99.40;;;;;;615438;231;26901;-81
2021/12/27 01:58:16;;;;;;;46.97;24.40;;;-4.50;99.60;;;;;;615620;233;26856;-81
2021/12/27 02:00:43;;;;;;;43.30;23.17;;;-4.50;99.70;;;;;;615584;233;26874;-81
2021/12/27 02:03:10;;;;;;;43.57;24.63;;;-4.50;99.90;;;;;;615404;233;26632;-80
2021/12/27 02:05:37;;;;;;;48.17;25.30;;;-4.50;99.70;;;;;;615610;233;26860;-81
2021/12/27 02:08:05;;;;;;;41.57;23.17;;;-4.60;99.70;;;;;;615398;233;26632;-80
2021/12/27 02:10:33;;;;;;;42.10;24.10;;;-4.30;99.90;;;;;;615331;234;26661;-81
2021/12/27 02:13:00;;;;;;;44.43;23.33;;;-4.30;99.70;;;;;;615312;233;26569;-80
2021/12/27 02:15:28;;;;;;;44.97;25.13;;;-4.20;99.80;;;;;;615258;234;26576;-81
2021/12/27 02:17:56;;;;;;;49.53;27.40;;;-4.20;99.70;;;;;;615258;234;26579;-81
2021/12/27 02:20:25;;;;;;;58.07;31.63;;;-4.30;99.70;;;;;;615257;234;26597;-81
2021/12/27 02:22:55;;;;;;;63.43;34.10;;;-4.30;99.70;;;;;;615259;233;26610;-80
2021/12/27 02:25:21;;;;;;;69.17;36.70;;;-4.20;99.80;;;;;;615684;234;26567;-80
2021/12/27 02:27:50;;;;;;;57.70;35.23;;;-4.20;99.40;;;;;;615865;234;26539;-81
2021/12/27 02:30:17;;;;;;;68.27;39.50;;;-4.20;99.20;;;;;;615839;233;26561;-81
2021/12/27 02:32:47;;;;;;;85.10;45.57;;;-4.40;99.30;;;;;;615877;233;26529;-81
2021/12/27 02:35:15;;;;;;;99.50;47.03;;;-4.50;99.70;;;;;;615849;234;26533;-81
2021/12/27 02:37:42;;;;;;;103.63;46.37;;;-4.40;99.70;;;;;;615851;234;26537;-81
2021/12/27 02:40:10;;;;;;;95.40;45.03;;;-4.20;99.80;;;;;;615863;230;26580;-81
2021/12/27 02:42:37;;;;;;;81.13;41.80;;;-4.10;99.20;;;;;;617204;228;26583;-81
2021/12/27 02:45:04;;;;;;;72.93;35.77;;;-3.90;99.50;;;;;;614632;233;26582;-81
2021/12/27 02:47:31;;;;;;;57.13;32.27;;;-3.80;99.00;;;;;;616825;233;26579;-81
2021/12/27 02:49:59;;;;;;;53.87;29.93;;;-3.70;99.20;;;;;;616762;233;26840;-80
2021/12/27 02:52:26;;;;;;;49.73;28.83;;;-3.50;99.00;;;;;;616477;233;26540;-81
2021/12/27 02:54:53;;;;;;;49.83;27.87;;;-3.60;98.90;;;;;;616453;233;26766;-81
2021/12/27 02:57:20;;;;;;;48.97;26.30;;;-3.40;98.70;;;;;;616033;233;26820;-80
2021/12/27 02:59:47;;;;;;;46.37;25.50;;;-3.40;98.60;;;;;;615807;233;26842;-80
2021/12/27 03:02:15;;;;;;;43.53;25.37;;;-3.40;98.50;;;;;;615647;233;26619;-81
2021/12/27 03:04:45;;;;;;;42.37;24.60;;;-3.40;98.20;;;;;;615629;233;26839;-80
2021/12/27 03:07:09;;;;;;;43.70;24.67;;;-3.50;98.20;;;;;;615366;233;26626;-80
2021/12/27 03:09:36;;;;;;;48.80;25.67;;;-3.30;98.60;;;;;;615696;230;27087;-80
2021/12/27 03:12:04;;;;;;;51.87;26.63;;;-3.10;98.40;;;;;;615575;233;26918;-81
2021/12/27 03:14:31;;;;;;;43.67;23.33;;;-3.20;97.90;;;;;;615536;233;26850;-80
2021/12/27 03:16:58;;;;;;;41.63;23.50;;;-3.40;98.00;;;;;;615603;233;26840;-81
2021/12/27 03:19:25;;;;;;;46.30;24.80;;;-3.40;98.30;;;;;;615314;231;26606;-81
2021/12/27 03:21:53;;;;;;;48.20;25.07;;;-3.20;98.30;;;;;;615417;234;27295;-80
2021/12/27 03:24:21;;;;;;;48.63;24.23;;;-3.10;98.10;;;;;;615378;234;26586;-80
2021/12/27 03:26:47;;;;;;;43.00;24.43;;;-3.30;97.60;;;;;;615326;234;26957;-81
2021/12/27 03:29:14;;;;;;;41.63;24.13;;;-3.30;98.20;;;;;;615358;234;26588;-81
2021/12/27 03:31:42;;;;;;;43.47;25.13;;;-3.30;98.10;;;;;;615378;233;26578;-81
2021/12/27 03:34:09;;;;;;;48.73;23.93;;;-3.20;97.60;;;;;;615316;234;26566;-80
2021/12/27 03:36:39;;;;;;;48.30;24.70;;;-3.20;98.40;;;;;;615281;233;26591;-81
2021/12/27 03:39:04;;;;;;;44.17;24.50;;;-3.20;98.00;;;;;;615170;234;26599;-81
2021/12/27 03:41:31;;;;;;;44.03;24.87;;;-3.20;97.60;;;;;;615388;234;26565;-81
2021/12/27 03:44:00;;;;;;;46.93;25.23;;;-3.00;97.90;;;;;;615270;234;26590;-81
2021/12/27 03:46:28;;;;;;;45.53;25.30;;;-3.00;97.80;;;;;;615319;229;26581;-80
2021/12/27 03:48:56;;;;;;;45.00;25.23;;;-3.10;97.30;;;;;;615387;231;26615;-80
2021/12/27 03:51:24;;;;;;;46.57;24.30;;;-3.10;97.80;;;;;;615452;233;26568;-81
2021/12/27 03:53:52;;;;;;;51.40;25.97;;;-3.20;97.60;;;;;;616498;231;26568;-80
2021/12/27 03:56:23;;;;;;;45.30;25.30;;;-3.20;97.50;;;;;;616627;233;26627;-81
2021/12/27 03:58:56;;;;;;;49.57;26.40;;;-3.20;97.90;;;;;;616102;230;26641;-81
2021/12/27 04:01:16;;;;;;;49.27;26.00;;;-3.20;97.80;;;;;;615647;233;26559;-80
2021/12/27 04:03:44;;;;;;;46.03;25.57;;;-3.00;97.50;;;;;;616021;233;26808;-81
2021/12/27 04:06:11;;;;;;;46.93;24.03;;;-3.10;97.30;;;;;;616017;233;26979;-79
2021/12/27 04:08:38;;;;;;;44.23;25.00;;;-3.10;97.60;;;;;;615862;230;26896;-80
2021/12/27 04:11:05;;;;;;;44.90;24.50;;;-3.00;97.30;;;;;;615925;233;26808;-80
2021/12/27 04:13:33;;;;;;;39.90;22.50;;;-2.90;97.30;;;;;;615723;233;26830;-80
2021/12/27 04:16:00;;;;;;;40.87;23.40;;;-2.90;97.20;;;;;;615628;233;26622;-80
2021/12/27 04:18:28;;;;;;;45.17;24.47;;;-2.90;96.80;;;;;;615609;233;26627;-81
2021/12/27 04:20:55;;;;;;;48.50;25.10;;;-2.80;97.20;;;;;;615648;233;26836;-81
2021/12/27 04:23:22;;;;;;;46.23;25.07;;;-2.70;96.90;;;;;;615641;233;26635;-81
2021/12/27 04:25:49;;;;;;;46.23;24.10;;;-2.80;96.90;;;;;;615544;233;26848;-81
2021/12/27 04:28:17;;;;;;;50.53;25.80;;;-2.90;97.30;;;;;;615499;233;26841;-80
2021/12/27 04:30:44;;;;;;;42.13;24.63;;;-2.70;97.40;;;;;;615356;233;26817;-81
2021/12/27 04:33:11;;;;;;;46.23;24.27;;;-2.50;96.80;;;;;;615337;233;26596;-81
2021/12/27 04:35:38;;;;;;;53.37;26.00;;;-2.30;97.30;;;;;;615373;233;26591;-81
2021/12/27 04:38:06;;;;;;;49.40;25.20;;;-2.20;96.70;;;;;;615355;233;26672;-81
2021/12/27 04:40:33;;;;;;;46.43;24.70;;;-1.90;96.50;;;;;;615362;230;26581;-80
2021/12/27 04:43:00;;;;;;;45.30;24.20;;;-2.00;95.60;;;;;;614836;234;26602;-81
2021/12/27 04:45:28;;;;;;;46.10;24.80;;;-1.60;96.20;;;;;;615185;234;26571;-81
2021/12/27 04:47:55;;;;;;;43.63;24.20;;;-2.00;96.20;;;;;;615405;234;26584;-81
2021/12/27 04:50:23;;;;;;;44.90;23.23;;;-1.90;95.80;;;;;;615300;230;26590;-81
2021/12/27 04:52:53;;;;;;;50.40;25.97;;;-2.10;96.00;;;;;;615341;232;26576;-80
2021/12/27 04:55:18;;;;;;;46.87;24.20;;;-2.20;95.90;;;;;;615353;233;26576;-81
2021/12/27 04:57:47;;;;;;;47.10;24.37;;;-2.30;96.50;;;;;;615208;233;26576;-81
2021/12/27 05:00:14;;;;;;;44.50;24.20;;;-2.30;96.10;;;;;;615088;234;26831;-81
2021/12/27 05:02:41;;;;;;;47.67;25.53;;;-2.20;96.10;;;;;;615402;234;26549;-80
2021/12/27 05:05:09;;;;;;;45.23;24.30;;;-2.20;95.80;;;;;;616321;231;26917;-81
2021/12/27 05:07:36;;;;;;;48.50;24.97;;;-2.10;95.90;;;;;;616753;233;26854;-81
2021/12/27 05:10:05;;;;;;;52.47;26.33;;;-2.20;96.10;;;;;;616406;230;26674;-81
2021/12/27 05:12:32;;;;;;;45.17;24.17;;;-2.20;96.00;;;;;;616240;233;26898;-81
2021/12/27 05:14:59;;;;;;;47.57;24.80;;;-2.20;96.00;;;;;;616005;233;26562;-81
2021/12/27 05:17:26;;;;;;;49.30;24.83;;;-2.10;95.80;;;;;;615933;233;27222;-81
2021/12/27 05:19:54;;;;;;;46.53;24.60;;;-2.10;96.00;;;;;;615885;230;26875;-81
2021/12/27 05:22:21;;;;;;;49.70;25.10;;;-2.10;95.60;;;;;;615918;233;26552;-81
2021/12/27 05:24:48;;;;;;;47.17;25.07;;;-2.10;95.60;;;;;;615667;233;26899;-81
2021/12/27 05:27:15;;;;;;;47.00;24.93;;;-2.10;96.00;;;;;;615681;233;26612;-82
2021/12/27 05:29:42;;;;;;;44.07;23.13;;;-2.10;96.10;;;;;;615555;233;26887;-80
2021/12/27 05:32:10;;;;;;;51.30;26.20;;;-2.00;96.10;;;;;;615718;233;26613;-81
2021/12/27 05:34:37;;;;;;;50.40;25.40;;;-1.90;95.90;;;;;;615664;233;26640;-81
2021/12/27 05:37:04;;;;;;;42.80;23.67;;;-1.80;96.20;;;;;;615665;233;26642;-81
2021/12/27 05:39:32;;;;;;;44.27;24.73;;;-1.50;95.70;;;;;;615624;231;26635;-81
2021/12/27 05:41:59;;;;;;;43.87;24.33;;;-1.40;95.20;;;;;;615285;233;26560;-81
2021/12/27 05:44:26;;;;;;;40.57;23.20;;;-1.60;95.20;;;;;;615420;233;26735;-81
2021/12/27 05:46:54;;;;;;;44.57;24.50;;;-1.60;95.40;;;;;;615364;234;26564;-81
2021/12/27 05:49:21;;;;;;;48.37;25.87;;;-1.50;95.80;;;;;;615317;233;26596;-81
2021/12/27 05:51:49;;;;;;;51.90;24.93;;;-1.30;95.80;;;;;;615420;234;26655;-80
2021/12/27 05:54:16;;;;;;;43.77;23.83;;;-1.40;95.70;;;;;;615322;233;26624;-80
2021/12/27 05:56:44;;;;;;;45.07;23.90;;;-1.10;95.30;;;;;;615886;233;26621;-81
2021/12/27 05:59:12;;;;;;;43.57;23.13;;;-1.30;94.70;;;;;;615444;233;26623;-81
2021/12/27 06:01:40;;;;;;;48.20;24.60;;;-1.40;95.60;;;;;;615360;233;26560;-81
2021/12/27 06:04:08;;;;;;;52.90;24.27;;;-1.40;95.20;;;;;;615340;234;26568;-80
2021/12/27 06:06:35;;;;;;;44.63;24.17;;;-1.40;95.10;;;;;;615316;233;26562;-81
2021/12/27 06:09:02;;;;;;;47.00;24.63;;;-1.60;95.80;;;;;;615213;230;27060;-80
2021/12/27 06:11:30;;;;;;;40.17;23.87;;;-1.40;95.40;;;;;;615347;233;26661;-81
2021/12/27 06:13:57;;;;;;;43.67;23.60;;;-1.60;96.00;;;;;;615344;233;26917;-84
2021/12/27 06:16:24;;;;;;;49.13;25.73;;;-1.40;95.50;;;;;;615937;231;26562;-81
2021/12/27 06:18:51;;;;;;;45.53;24.33;;;-1.20;95.30;;;;;;616711;230;26640;-80
2021/12/27 06:21:18;;;;;;;45.60;23.70;;;-1.40;95.30;;;;;;616389;233;26614;-81
2021/12/27 06:23:46;;;;;;;44.13;24.23;;;-1.40;95.40;;;;;;616325;233;26567;-80
2021/12/27 06:26:13;;;;;;;44.13;23.67;;;-1.30;95.70;;;;;;616108;233;26547;-80
2021/12/27 06:28:41;;;;;;;42.27;23.87;;;-1.10;94.90;;;;;;616033;233;26575;-81
2021/12/27 06:31:09;;;;;;;48.43;25.57;;;-1.10;95.00;;;;;;616063;233;26583;-81
2021/12/27 06:33:36;;;;;;;44.03;24.93;;;-1.10;94.70;;;;;;605104;233;26663;-81
2021/12/27 06:36:03;;;;;;;47.60;25.80;;;-1.10;95.30;;;;;;615503;233;26589;-81
2021/12/27 06:38:30;;;;;;;44.30;24.47;;;-1.10;95.60;;;;;;615485;233;26595;-81
2021/12/27 06:41:00;;;;;;;50.00;25.00;;;-1.10;96.00;;;;;;615514;233;26589;-81
2021/12/27 06:43:25;;;;;;;46.63;24.53;;;-0.90;96.40;;;;;;615310;233;26632;-77
2021/12/27 06:45:53;;;;;;;42.70;24.17;;;-0.90;96.60;;;;;;615516;229;26606;-78
2021/12/27 06:48:21;;;;;;;45.43;25.43;;;-1.10;96.40;;;;;;615508;233;26621;-78
2021/12/27 06:50:49;;;;;;;47.77;24.93;;;-1.40;96.70;;;;;;615495;233;26651;-77
2021/12/27 06:53:17;;;;;;;45.83;25.13;;;-1.50;97.50;;;;;;615352;233;26578;-78
2021/12/27 06:55:45;;;;;;;47.20;25.27;;;-1.40;97.40;;;;;;615291;233;26590;-77
2021/12/27 06:58:13;;;;;;;41.30;23.00;;;-1.20;97.60;;;;;;615256;233;26565;-78
2021/12/27 07:00:42;;;;;;;46.50;25.23;;;-1.00;97.40;;;;;;615080;234;26618;-78
2021/12/27 07:03:11;;;;;;;49.77;26.27;;;-1.00;97.30;;;;;;615168;234;26652;-78
2021/12/27 07:05:36;;;;;;;40.80;24.13;;;-0.80;97.00;;;;;;614885;233;26590;-77
2021/12/27 07:08:04;;;;;;;47.10;25.13;;;-0.80;97.00;;;;;;615012;233;26593;-79
2021/12/27 07:10:32;;;;;;;45.33;23.47;;;-1.10;97.30;;;;;;615093;234;26580;-78
2021/12/27 07:13:01;;;;;;;42.43;24.07;;;-1.10;97.70;;;;;;615053;234;26578;-78
2021/12/27 07:15:27;;;;;;;42.70;24.63;;;-0.80;97.90;;;;;;615184;228;26563;-78
2021/12/27 07:17:56;;;;;;;46.43;25.30;;;-0.70;97.60;;;;;;615307;234;26595;-77
2021/12/27 07:20:23;;;;;;;45.53;24.73;;;-0.50;97.80;;;;;;622821;229;26570;-79
2021/12/27 07:22:51;;;;;;;41.10;24.13;;;-0.50;97.10;;;;;;628001;229;26597;-78
2021/12/27 07:25:19;;;;;;;47.03;25.07;;;-0.50;97.20;;;;;;627948;229;26582;-78
2021/12/27 07:27:47;;;;;;;48.10;25.40;;;-0.50;97.40;;;;;;628497;226;26592;-78
2021/12/27 07:30:15;;;;;;;47.00;25.43;;;-0.60;97.10;;;;;;629422;228;26618;-78
2021/12/27 07:32:43;;;;;;;43.47;23.87;;;-0.60;97.50;;;;;;628567;228;26604;-78
2021/12/27 07:35:11;;;;;;;46.87;25.17;;;-0.80;97.70;;;;;;630707;225;26632;-78
2021/12/27 07:37:39;;;;;;;46.10;25.40;;;-0.80;97.90;;;;;;647787;222;26578;-80
2021/12/27 07:40:08;;;;;;;46.17;24.43;;;-0.70;98.00;;;;;;647730;222;26556;-79
2021/12/27 07:42:35;;;;;;;44.97;25.77;;;-0.70;97.90;;;;;;647757;222;26509;-77
2021/12/27 07:45:02;;;;;;;43.93;24.27;;;-0.80;97.50;;;;;;647672;222;27270;-78
2021/12/27 07:47:29;;;;;;;51.50;27.00;;;-0.90;98.10;;;;;;647483;222;26550;-78
2021/12/27 07:49:56;;;;;;;50.33;27.60;;;-0.80;98.00;;;;;;647360;217;26803;-77
2021/12/27 07:52:24;;;;;;;45.97;26.93;;;-0.80;97.80;;;;;;647399;222;26802;-78
2021/12/27 07:54:51;;;;;;;47.83;27.20;;;-1.00;98.50;;;;;;647359;222;26816;-77
2021/12/27 07:57:18;;;;;;;49.50;25.80;;;-0.70;98.60;;;;;;647402;222;26563;-78
2021/12/27 07:59:49;;;;;;;43.63;25.57;;;-0.40;98.40;;;;;;647357;222;26818;-77
2021/12/27 08:02:15;;;;;;;42.23;26.37;;;-0.40;97.80;;;;;;621956;230;26618;-78
2021/12/27 08:04:43;;;;;;;45.47;25.33;;;-0.50;97.70;;;;;;636463;226;26866;-78
2021/12/27 08:07:10;;;;;;;48.10;26.33;;;-0.50;97.90;;;;;;634064;226;26552;-78
2021/12/27 08:09:37;;;;;;;48.30;26.73;;;-0.60;98.30;;;;;;625798;229;26644;-79
2021/12/27 08:12:04;;;;;;;50.10;26.20;;;-0.60;97.90;;;;;;623782;230;26586;-78
2021/12/27 08:14:31;;;;;;;49.70;25.73;;;-0.50;98.30;;;;;;611963;235;26616;-78
2021/12/27 08:16:59;;;;;;;46.37;25.50;;;-0.40;98.20;;;;;;612048;235;27116;-79
2021/12/27 08:19:26;;;;;;;50.30;25.80;;;-0.20;97.90;;;;;;612087;235;26612;-78
2021/12/27 08:21:53;;;;;;;52.30;25.97;;;-0.20;98.10;;;;;;612171;235;26833;-78
2021/12/27 08:24:20;;;;;;;43.17;24.27;;;0.10;97.90;;;;;;612146;235;26648;-78
2021/12/27 08:26:47;;;;;;;45.97;25.37;;;0.20;97.40;;;;;;612132;235;26844;-80
2021/12/27 08:29:15;;;;;;;42.77;24.43;;;0.10;97.70;;;;;;611940;235;26844;-81
2021/12/27 08:31:43;;;;;;;48.87;25.63;;;0.30;97.90;;;;;;612080;235;26830;-80
2021/12/27 08:34:10;;;;;;;42.37;24.20;;;0.30;97.30;;;;;;623736;230;26849;-79
2021/12/27 08:36:38;;;;;;;48.80;25.50;;;0.20;97.60;;;;;;624092;227;26605;-77
2021/12/27 08:39:05;;;;;;;48.70;25.93;;;0.20;97.50;;;;;;633857;224;26938;-77
2021/12/27 08:41:32;;;;;;;44.83;25.57;;;0.30;97.60;;;;;;636384;225;26578;-78
2021/12/27 08:44:01;;;;;;;45.27;25.43;;;0.20;97.60;;;;;;637527;225;26851;-80
2021/12/27 08:46:26;;;;;;;46.37;24.27;;;0.20;97.80;;;;;;637764;225;26573;-77
2021/12/27 08:48:53;;;;;;;45.30;24.93;;;0.40;97.60;;;;;;637735;225;26542;-77
2021/12/27 08:51:21;;;;;;;46.93;25.07;;;0.50;97.10;;;;;;637596;225;26561;-77
2021/12/27 08:53:49;;;;;;;41.87;23.97;;;0.60;97.60;;;;;;637598;226;26566;-79
2021/12/27 08:56:18;;;;;;;43.67;24.40;;;0.70;97.40;;;;;;637573;225;26570;-81
2021/12/27 08:58:45;;;;;;;43.60;24.83;;;0.70;97.40;;;;;;637150;226;26599;-81
2021/12/27 09:01:12;;;;;;;42.40;23.43;;;0.80;96.90;;;;;;637280;225;26561;-84
2021/12/27 09:03:39;;;;;;;42.23;24.83;;;0.60;97.20;;;;;;637248;225;26759;-80
2021/12/27 09:06:06;;;;;;;40.43;23.43;;;0.60;97.30;;;;;;637268;225;26580;-80
2021/12/27 09:08:33;;;;;;;40.70;23.97;;;0.60;97.30;;;;;;636830;225;26819;-80
2021/12/27 09:11:01;;;;;;;44.07;24.63;;;0.90;97.50;;;;;;630978;225;26599;-80
2021/12/27 09:13:28;;;;;;;46.60;25.80;;;0.90;96.80;;;;;;624366;230;26921;-79
2021/12/27 09:15:55;;;;;;;41.20;24.07;;;0.70;97.00;;;;;;616925;230;26613;-80
2021/12/27 09:18:22;;;;;;;41.67;24.27;;;0.70;97.20;;;;;;616325;233;26877;-79
2021/12/27 09:20:49;;;;;;;46.77;24.80;;;0.70;97.10;;;;;;616436;232;26564;-79
2021/12/27 09:23:17;;;;;;;46.63;25.10;;;1.10;97.10;;;;;;616576;233;26800;-79
2021/12/27 09:25:45;;;;;;;42.63;24.07;;;1.10;97.10;;;;;;616504;232;26830;-80
2021/12/27 09:28:13;;;;;;;44.73;25.10;;;1.10;97.00;;;;;;616408;233;26628;-79
2021/12/27 09:30:40;;;;;;;36.87;23.10;;;1.20;96.80;;;;;;616901;229;26604;-80
2021/12/27 09:33:08;;;;;;;44.90;24.53;;;1.10;96.60;;;;;;627125;227;26639;-78
2021/12/27 09:35:36;;;;;;;41.97;24.03;;;0.80;96.90;;;;;;627078;228;26607;-79
2021/12/27 09:38:04;;;;;;;42.70;24.70;;;0.80;96.90;;;;;;624099;228;26609;-80
2021/12/27 09:40:31;;;;;;;44.43;25.80;;;0.60;97.30;;;;;;623862;230;26663;-79
2021/12/27 09:42:58;;;;;;;38.97;24.10;;;0.70;97.10;;;;;;623884;230;27283;-80
2021/12/27 09:45:25;;;;;;;43.83;24.13;;;0.90;97.30;;;;;;626142;229;26636;-79
2021/12/27 09:47:52;;;;;;;39.27;22.77;;;1.10;97.10;;;;;;626457;229;26812;-82
2021/12/27 09:50:21;;;;;;;44.47;23.60;;;1.00;97.30;;;;;;623969;230;26670;-83
2021/12/27 09:52:48;;;;;;;39.43;23.33;;;1.10;97.00;;;;;;623802;228;26608;-84
2021/12/27 09:55:15;;;;;;;44.27;23.80;;;1.10;97.10;;;;;;648799;222;26758;-84
2021/12/27 09:57:43;;;;;;;43.67;23.83;;;1.00;97.00;;;;;;643367;221;26560;-86
2021/12/27 10:00:11;;;;;;;43.43;24.90;;;1.10;97.30;;;;;;638011;223;26616;-84
2021/12/27 10:02:39;;;;;;;41.87;23.03;;;1.20;97.30;;;;;;640179;224;26629;-80
2021/12/27 10:05:07;;;;;;;41.23;23.87;;;1.20;97.30;;;;;;639466;222;26815;-80
2021/12/27 10:07:34;;;;;;;42.07;24.10;;;1.10;97.00;;;;;;648692;221;26608;-79
2021/12/27 10:10:01;;;;;;;44.27;23.33;;;1.00;97.10;;;;;;646848;221;26870;-79
2021/12/27 10:12:28;;;;;;;44.43;25.17;;;1.10;97.70;;;;;;640110;221;26600;-79
2021/12/27 10:14:56;;;;;;;46.27;25.03;;;1.20;97.30;;;;;;640339;224;26839;-79
2021/12/27 10:17:24;;;;;;;39.37;24.03;;;1.20;97.10;;;;;;641851;222;26558;-80
2021/12/27 10:19:51;;;;;;;40.33;23.37;;;1.20;97.10;;;;;;642003;222;26899;-80
2021/12/27 10:22:18;;;;;;;39.03;23.97;;;1.30;97.70;;;;;;637110;225;26568;-80
2021/12/27 10:24:45;;;;;;;45.70;25.60;;;1.40;97.10;;;;;;637141;225;26572;-79
2021/12/27 10:27:13;;;;;;;45.00;25.80;;;1.80;97.10;;;;;;637094;224;26572;-79
2021/12/27 10:29:41;;;;;;;39.67;23.73;;;1.70;96.50;;;;;;636812;226;26589;-80
2021/12/27 10:32:10;;;;;;;43.83;25.43;;;1.90;96.90;;;;;;637449;225;26498;-79
2021/12/27 10:34:52;;;;;;;46.70;24.47;;;1.80;96.80;;;;;;637489;225;26547;-79
2021/12/27 10:37:25;;;;;;;44.60;25.17;;;2.00;97.20;;;;;;638578;224;26535;-80
2021/12/27 10:39:55;;;;;;;42.73;23.63;;;2.30;96.80;;;;;;640922;224;26568;-79
2021/12/27 10:42:27;;;;;;;40.10;23.57;;;2.30;96.30;;;;;;638410;224;26542;-80
2021/12/27 10:44:54;;;;;;;46.27;25.93;;;2.30;96.70;;;;;;640866;224;26524;-79
2021/12/27 10:47:36;;;;;;;42.10;24.43;;;2.40;97.10;;;;;;643034;222;26483;-80
2021/12/27 10:50:18;;;;;;;41.17;24.80;;;2.40;97.10;;;;;;647531;222;26587;-80
2021/12/27 10:52:48;;;;;;;39.10;23.33;;;2.40;96.60;;;;;;646936;222;26544;-83
2021/12/27 10:55:15;;;;;;;37.73;23.00;;;2.50;97.10;;;;;;638458;224;26546;-80
2021/12/27 10:57:42;;;;;;;42.63;24.47;;;2.40;97.10;;;;;;640761;224;26932;-80
2021/12/27 11:00:15;;;;;;;43.37;24.37;;;2.50;97.70;;;;;;641005;224;26564;-80
2021/12/27 11:02:43;;;;;;;45.90;24.60;;;2.20;98.30;;;;;;638433;223;26572;-80
2021/12/27 11:05:15;;;;;;;40.30;25.00;;;1.80;97.50;;;;;;638574;223;26579;-80
2021/12/27 11:07:42;;;;;;;38.27;22.80;;;1.80;97.50;;;;;;638117;223;26761;-80
2021/12/27 11:10:09;;;;;;;42.37;24.00;;;1.40;97.40;;;;;;641123;222;28548;-80
2021/12/27 11:12:36;;;;;;;45.43;24.43;;;1.30;99.40;;;;;;647483;222;26576;-80
2021/12/27 11:15:04;;;;;;;45.03;24.97;;;1.30;98.80;;;;;;638192;224;26764;-80
2021/12/27 11:17:31;;;;;;;39.77;23.53;;;1.60;99.70;;;;;;639665;223;27240;-79
2021/12/27 11:19:58;;;;;;;38.60;23.90;;;1.80;99.90;;;;;;643342;222;26744;-80
2021/12/27 11:22:26;;;;;;;40.50;22.83;;;1.90;98.30;;;;;;647272;222;27261;-79
2021/12/27 11:24:53;;;;;;;40.43;23.77;;;1.90;98.30;;;;;;647305;222;27238;-80
2021/12/27 11:27:20;;;;;;;46.17;24.57;;;2.10;98.40;;;;;;647250;222;26568;-80
2021/12/27 11:29:59;;;;;;;40.33;23.00;;;2.20;99.20;;;;;;647168;222;26608;-80
2021/12/27 11:32:27;;;;;;;40.20;24.03;;;2.70;98.70;;;;;;642135;222;26576;-80
2021/12/27 11:34:55;;;;;;;39.33;22.67;;;2.80;98.40;;;;;;637131;224;26585;-81
2021/12/27 11:37:37;;;;;;;39.27;22.13;;;3.00;99.00;;;;;;637127;223;26614;-80
2021/12/27 11:40:06;;;;;;;40.53;23.00;;;2.90;97.60;;;;;;636789;225;26619;-80
2021/12/27 11:42:39;;;;;;;43.60;23.43;;;2.90;97.60;;;;;;637496;225;26749;-80
2021/12/27 11:45:06;;;;;;;40.60;23.97;;;2.80;98.40;;;;;;646739;222;26544;-80
2021/12/27 11:47:33;;;;;;;38.10;22.57;;;2.90;98.40;;;;;;643722;222;26748;-80
2021/12/27 11:50:02;;;;;;;36.80;23.00;;;2.90;98.60;;;;;;627017;226;26564;-80
2021/12/27 11:52:28;;;;;;;39.97;22.27;;;3.00;97.90;;;;;;637448;226;26864;-81
2021/12/27 11:55:00;;;;;;;36.70;22.13;;;2.90;97.40;;;;;;637496;224;26742;-80
2021/12/27 11:57:39;;;;;;;40.07;23.77;;;2.90;97.50;;;;;;637069;226;26844;-80
2021/12/27 12:00:32;;;;;;;37.40;22.40;;;2.90;98.70;;;;;;637532;225;26804;-80
2021/12/27 12:03:15;;;;;;;35.37;20.37;;;3.10;99.10;;;;;;638075;224;26543;-81
2021/12/27 12:05:47;;;;;;;38.23;22.43;;;3.20;99.10;;;;;;644072;222;26525;-79
2021/12/27 12:08:17;;;;;;;40.23;23.00;;;3.20;99.60;;;;;;647565;222;26528;-80
2021/12/27 12:10:49;;;;;;;40.20;23.40;;;3.00;98.00;;;;;;644749;221;26562;-83
2021/12/27 12:13:29;;;;;;;39.03;22.97;;;3.00;98.00;;;;;;637519;221;26538;-81
2021/12/27 12:15:58;;;;;;;45.90;23.77;;;3.00;97.60;;;;;;640153;224;26520;-81
2021/12/27 12:18:25;;;;;;;38.37;23.60;;;2.80;97.80;;;;;;646119;221;26479;-79
2021/12/27 12:20:53;;;;;;;40.80;24.00;;;3.20;98.90;;;;;;638458;223;26563;-81
2021/12/27 12:23:21;;;;;;;39.10;22.87;;;3.10;98.80;;;;;;638421;223;26546;-79
2021/12/27 12:25:48;;;;;;;39.30;22.63;;;3.30;98.80;;;;;;638206;224;26543;-79
2021/12/27 12:28:15;;;;;;;35.17;22.27;;;3.20;98.00;;;;;;637579;221;26832;-80
2021/12/27 12:30:42;;;;;;;41.17;22.47;;;3.10;97.60;;;;;;640644;219;26569;-84
2021/12/27 12:33:09;;;;;;;37.30;21.40;;;3.10;97.90;;;;;;647137;222;26784;-81
2021/12/27 12:35:51;;;;;;;45.33;23.37;;;3.30;99.90;;;;;;647329;222;26609;-80
2021/12/27 12:38:23;;;;;;;37.70;21.43;;;3.40;99.90;;;;;;637822;225;26853;-81